sensor_id;sensor_type;location;lat;lon;timestamp;P1;durP1;ratioP1;P2;durP2;ratioP2
17714;SDS011;8977;50.902;4.314;2024-01-30T00:01:24;6.37;;;5.10;;
17714;SDS011;8977;50.902;4.314;2024-01-30T00:03:51;5.17;;;4.67;;
17714;SDS011;8977;50.902;4.314;2024-01-30T00:06:18;7.13;;;5.47;;
17714;SDS011;8977;50.902;4.314;2024-01-30T00:08:46;6.77;;;5.47;;
17714;SDS011;8977;50.902;4.314;2024-01-30T00:11:14;7.00;;;4.73;;
17714;SDS011;8977;50.902;4.314;2024-01-30T00:13:41;5.63;;;5.03;;
17714;SDS011;8977;50.902;4.314;2024-01-30T00:16:08;6.80;;;5.13;;
17714;SDS011;8977;50.902;4.314;2024-01-30T00:18:36;7.83;;;5.00;;
17714;SDS011;8977;50.902;4.314;2024-01-30T00:21:05;5.73;;;5.20;;
17714;SDS011;8977;50.902;4.314;2024-01-30T00:23:32;5.60;;;4.83;;
17714;SDS011;8977;50.902;4.314;2024-01-30T00:25:59;7.63;;;5.33;;
17714;SDS011;8977;50.902;4.314;2024-01-30T00:28:26;6.90;;;5.30;;
17714;SDS011;8977;50.902;4.314;2024-01-30T00:30:53;7.27;;;6.00;;
17714;SDS011;8977;50.902;4.314;2024-01-30T00:33:20;6.33;;;5.10;;
17714;SDS011;8977;50.902;4.314;2024-01-30T00:35:48;7.63;;;5.50;;
17714;SDS011;8977;50.902;4.314;2024-01-30T00:38:15;7.93;;;5.83;;
17714;SDS011;8977;50.902;4.314;2024-01-30T00:40:42;6.83;;;5.43;;
17714;SDS011;8977;50.902;4.314;2024-01-30T00:43:10;7.53;;;5.67;;
17714;SDS011;8977;50.902;4.314;2024-01-30T00:45:37;8.03;;;5.30;;
17714;SDS011;8977;50.902;4.314;2024-01-30T00:48:04;6.30;;;5.43;;
17714;SDS011;8977;50.902;4.314;2024-01-30T00:50:31;6.20;;;5.10;;
17714;SDS011;8977;50.902;4.314;2024-01-30T00:52:59;5.80;;;5.20;;
17714;SDS011;8977;50.902;4.314;2024-01-30T00:55:26;5.87;;;5.07;;
17714;SDS011;8977;50.902;4.314;2024-01-30T00:57:54;8.73;;;5.63;;
17714;SDS011;8977;50.902;4.314;2024-01-30T01:00:21;7.23;;;5.37;;
17714;SDS011;8977;50.902;4.314;2024-01-30T01:02:53;9.07;;;5.90;;
17714;SDS011;8977;50.902;4.314;2024-01-30T01:05:21;7.73;;;5.53;;
17714;SDS011;8977;50.902;4.314;2024-01-30T01:07:48;7.27;;;6.10;;
17714;SDS011;8977;50.902;4.314;2024-01-30T01:10:16;7.30;;;5.73;;
17714;SDS011;8977;50.902;4.314;2024-01-30T01:12:43;7.70;;;5.33;;
17714;SDS011;8977;50.902;4.314;2024-01-30T01:15:10;7.63;;;5.80;;
17714;SDS011;8977;50.902;4.314;2024-01-30T01:17:38;5.73;;;5.13;;
17714;SDS011;8977;50.902;4.314;2024-01-30T01:20:05;8.43;;;5.33;;
17714;SDS011;8977;50.902;4.314;2024-01-30T01:22:33;6.17;;;5.17;;
17714;SDS011;8977;50.902;4.314;2024-01-30T01:25:02;7.53;;;5.37;;
17714;SDS011;8977;50.902;4.314;2024-01-30T01:27:33;7.40;;;5.13;;
17714;SDS011;8977;50.902;4.314;2024-01-30T01:30:05;5.67;;;4.87;;
17714;SDS011;8977;50.902;4.314;2024-01-30T01:32:34;8.27;;;5.23;;
17714;SDS011;8977;50.902;4.314;2024-01-30T01:35:01;8.10;;;5.37;;
17714;SDS011;8977;50.902;4.314;2024-01-30T01:37:30;5.43;;;4.93;;
17714;SDS011;8977;50.902;4.314;2024-01-30T01:39:58;9.23;;;5.30;;
17714;SDS011;8977;50.902;4.314;2024-01-30T01:42:25;7.73;;;5.47;;
17714;SDS011;8977;50.902;4.314;2024-01-30T01:44:54;5.63;;;4.87;;
17714;SDS011;8977;50.902;4.314;2024-01-30T01:47:21;6.20;;;5.33;;
17714;SDS011;8977;50.902;4.314;2024-01-30T01:49:48;8.27;;;5.60;;
17714;SDS011;8977;50.902;4.314;2024-01-30T01:52:15;8.30;;;5.63;;
17714;SDS011;8977;50.902;4.314;2024-01-30T01:54:42;6.23;;;5.13;;
17714;SDS011;8977;50.902;4.314;2024-01-30T01:57:09;6.83;;;5.17;;
17714;SDS011;8977;50.902;4.314;2024-01-30T01:59:37;6.97;;;5.30;;
17714;SDS011;8977;50.902;4.314;2024-01-30T02:02:05;5.30;;;4.80;;
17714;SDS011;8977;50.902;4.314;2024-01-30T02:04:37;8.03;;;5.20;;
17714;SDS011;8977;50.902;4.314;2024-01-30T02:07:04;7.33;;;5.70;;
17714;SDS011;8977;50.902;4.314;2024-01-30T02:09:31;5.67;;;4.90;;
17714;SDS011;8977;50.902;4.314;2024-01-30T02:11:58;6.07;;;5.10;;
17714;SDS011;8977;50.902;4.314;2024-01-30T02:14:25;8.83;;;5.57;;
17714;SDS011;8977;50.902;4.314;2024-01-30T02:16:52;6.50;;;5.57;;
17714;SDS011;8977;50.902;4.314;2024-01-30T02:19:20;7.23;;;5.10;;
17714;SDS011;8977;50.902;4.314;2024-01-30T02:21:48;7.23;;;5.57;;
17714;SDS011;8977;50.902;4.314;2024-01-30T02:24:16;7.17;;;5.13;;
17714;SDS011;8977;50.902;4.314;2024-01-30T02:26:46;6.83;;;5.40;;
17714;SDS011;8977;50.902;4.314;2024-01-30T02:29:13;6.80;;;5.10;;
17714;SDS011;8977;50.902;4.314;2024-01-30T02:31:40;7.30;;;5.33;;
17714;SDS011;8977;50.902;4.314;2024-01-30T02:34:07;6.70;;;5.10;;
17714;SDS011;8977;50.902;4.314;2024-01-30T02:36:33;6.57;;;5.10;;
17714;SDS011;8977;50.902;4.314;2024-01-30T02:39:02;7.53;;;5.33;;
17714;SDS011;8977;50.902;4.314;2024-01-30T02:41:30;8.83;;;5.40;;
17714;SDS011;8977;50.902;4.314;2024-01-30T02:43:57;7.47;;;4.90;;
17714;SDS011;8977;50.902;4.314;2024-01-30T02:46:24;6.80;;;4.87;;
17714;SDS011;8977;50.902;4.314;2024-01-30T02:48:50;6.00;;;5.20;;
17714;SDS011;8977;50.902;4.314;2024-01-30T02:51:17;8.77;;;5.47;;
17714;SDS011;8977;50.902;4.314;2024-01-30T02:53:44;9.00;;;5.07;;
17714;SDS011;8977;50.902;4.314;2024-01-30T02:56:13;7.47;;;5.90;;
17714;SDS011;8977;50.902;4.314;2024-01-30T02:58:40;7.57;;;5.50;;
17714;SDS011;8977;50.902;4.314;2024-01-30T03:01:07;8.40;;;5.37;;
17714;SDS011;8977;50.902;4.314;2024-01-30T03:03:34;8.30;;;5.60;;
17714;SDS011;8977;50.902;4.314;2024-01-30T03:06:01;6.80;;;5.03;;
17714;SDS011;8977;50.902;4.314;2024-01-30T03:08:28;8.00;;;5.27;;
17714;SDS011;8977;50.902;4.314;2024-01-30T03:10:55;9.30;;;6.07;;
17714;SDS011;8977;50.902;4.314;2024-01-30T03:13:23;7.27;;;5.30;;
17714;SDS011;8977;50.902;4.314;2024-01-30T03:15:50;6.53;;;4.97;;
17714;SDS011;8977;50.902;4.314;2024-01-30T03:18:17;6.90;;;5.73;;
17714;SDS011;8977;50.902;4.314;2024-01-30T03:20:44;6.60;;;5.47;;
17714;SDS011;8977;50.902;4.314;2024-01-30T03:23:11;5.60;;;5.10;;
17714;SDS011;8977;50.902;4.314;2024-01-30T03:25:37;7.77;;;5.20;;
17714;SDS011;8977;50.902;4.314;2024-01-30T03:28:05;7.97;;;5.47;;
17714;SDS011;8977;50.902;4.314;2024-01-30T03:30:33;8.90;;;5.47;;
17714;SDS011;8977;50.902;4.314;2024-01-30T03:33:00;6.57;;;5.33;;
17714;SDS011;8977;50.902;4.314;2024-01-30T03:35:27;7.83;;;5.40;;
17714;SDS011;8977;50.902;4.314;2024-01-30T03:37:54;9.03;;;5.90;;
17714;SDS011;8977;50.902;4.314;2024-01-30T03:40:21;9.20;;;5.37;;
17714;SDS011;8977;50.902;4.314;2024-01-30T03:42:48;10.03;;;5.80;;
17714;SDS011;8977;50.902;4.314;2024-01-30T03:45:15;6.13;;;5.40;;
17714;SDS011;8977;50.902;4.314;2024-01-30T03:47:46;7.93;;;5.37;;
17714;SDS011;8977;50.902;4.314;2024-01-30T03:50:13;6.63;;;5.30;;
17714;SDS011;8977;50.902;4.314;2024-01-30T03:52:40;8.87;;;6.10;;
17714;SDS011;8977;50.902;4.314;2024-01-30T03:55:07;8.10;;;5.37;;
17714;SDS011;8977;50.902;4.314;2024-01-30T03:57:34;6.90;;;5.33;;
17714;SDS011;8977;50.902;4.314;2024-01-30T04:00:01;6.80;;;5.47;;
17714;SDS011;8977;50.902;4.314;2024-01-30T04:02:30;8.00;;;6.10;;
17714;SDS011;8977;50.902;4.314;2024-01-30T04:04:58;7.60;;;5.60;;
17714;SDS011;8977;50.902;4.314;2024-01-30T04:07:25;7.13;;;5.23;;
17714;SDS011;8977;50.902;4.314;2024-01-30T04:09:52;6.10;;;5.13;;
17714;SDS011;8977;50.902;4.314;2024-01-30T04:12:19;10.40;;;5.70;;
17714;SDS011;8977;50.902;4.314;2024-01-30T04:14:45;6.17;;;5.23;;
17714;SDS011;8977;50.902;4.314;2024-01-30T04:17:12;8.20;;;5.53;;
17714;SDS011;8977;50.902;4.314;2024-01-30T04:19:39;7.33;;;5.00;;
17714;SDS011;8977;50.902;4.314;2024-01-30T04:22:08;12.03;;;6.27;;
17714;SDS011;8977;50.902;4.314;2024-01-30T04:24:35;7.40;;;5.67;;
17714;SDS011;8977;50.902;4.314;2024-01-30T04:27:02;6.87;;;5.47;;
17714;SDS011;8977;50.902;4.314;2024-01-30T04:29:29;8.40;;;5.87;;
17714;SDS011;8977;50.902;4.314;2024-01-30T04:31:57;8.10;;;6.03;;
17714;SDS011;8977;50.902;4.314;2024-01-30T04:34:24;9.70;;;6.40;;
17714;SDS011;8977;50.902;4.314;2024-01-30T04:36:51;9.77;;;6.43;;
17714;SDS011;8977;50.902;4.314;2024-01-30T04:39:20;8.30;;;6.10;;
17714;SDS011;8977;50.902;4.314;2024-01-30T04:41:47;11.00;;;6.70;;
17714;SDS011;8977;50.902;4.314;2024-01-30T04:44:14;8.57;;;6.00;;
17714;SDS011;8977;50.902;4.314;2024-01-30T04:46:41;10.00;;;6.43;;
17714;SDS011;8977;50.902;4.314;2024-01-30T04:49:08;8.37;;;6.13;;
17714;SDS011;8977;50.902;4.314;2024-01-30T04:51:35;8.13;;;6.27;;
17714;SDS011;8977;50.902;4.314;2024-01-30T04:54:02;7.47;;;5.93;;
17714;SDS011;8977;50.902;4.314;2024-01-30T04:56:31;9.13;;;6.47;;
17714;SDS011;8977;50.902;4.314;2024-01-30T04:58:58;8.20;;;6.07;;
17714;SDS011;8977;50.902;4.314;2024-01-30T05:01:24;9.20;;;6.10;;
17714;SDS011;8977;50.902;4.314;2024-01-30T05:03:51;9.67;;;6.60;;
17714;SDS011;8977;50.902;4.314;2024-01-30T05:06:23;6.73;;;5.47;;
17714;SDS011;8977;50.902;4.314;2024-01-30T05:08:51;8.53;;;5.53;;
17714;SDS011;8977;50.902;4.314;2024-01-30T05:11:18;7.00;;;5.50;;
17714;SDS011;8977;50.902;4.314;2024-01-30T05:13:47;8.90;;;5.70;;
17714;SDS011;8977;50.902;4.314;2024-01-30T05:16:15;8.03;;;6.23;;
17714;SDS011;8977;50.902;4.314;2024-01-30T05:18:41;7.57;;;6.17;;
17714;SDS011;8977;50.902;4.314;2024-01-30T05:21:08;9.53;;;5.60;;
17714;SDS011;8977;50.902;4.314;2024-01-30T05:23:36;7.07;;;5.83;;
17714;SDS011;8977;50.902;4.314;2024-01-30T05:26:03;7.77;;;5.60;;
17714;SDS011;8977;50.902;4.314;2024-01-30T05:28:30;8.90;;;6.50;;
17714;SDS011;8977;50.902;4.314;2024-01-30T05:30:59;8.43;;;5.63;;
17714;SDS011;8977;50.902;4.314;2024-01-30T05:33:26;8.10;;;6.33;;
17714;SDS011;8977;50.902;4.314;2024-01-30T05:35:53;9.97;;;6.17;;
17714;SDS011;8977;50.902;4.314;2024-01-30T05:38:20;8.20;;;6.50;;
17714;SDS011;8977;50.902;4.314;2024-01-30T05:40:47;6.67;;;5.47;;
17714;SDS011;8977;50.902;4.314;2024-01-30T05:43:14;9.00;;;5.70;;
17714;SDS011;8977;50.902;4.314;2024-01-30T05:45:41;9.33;;;6.30;;
17714;SDS011;8977;50.902;4.314;2024-01-30T05:48:09;8.13;;;5.80;;
17714;SDS011;8977;50.902;4.314;2024-01-30T05:50:36;8.57;;;5.53;;
17714;SDS011;8977;50.902;4.314;2024-01-30T05:53:03;6.73;;;6.03;;
17714;SDS011;8977;50.902;4.314;2024-01-30T05:55:30;7.83;;;6.40;;
17714;SDS011;8977;50.902;4.314;2024-01-30T05:57:57;6.63;;;5.30;;
17714;SDS011;8977;50.902;4.314;2024-01-30T06:00:24;9.20;;;6.20;;
17714;SDS011;8977;50.902;4.314;2024-01-30T06:02:51;7.43;;;5.97;;
17714;SDS011;8977;50.902;4.314;2024-01-30T06:05:19;6.97;;;5.70;;
17714;SDS011;8977;50.902;4.314;2024-01-30T06:07:46;7.73;;;6.10;;
17714;SDS011;8977;50.902;4.314;2024-01-30T06:10:13;6.73;;;5.27;;
17714;SDS011;8977;50.902;4.314;2024-01-30T06:12:40;7.23;;;5.53;;
17714;SDS011;8977;50.902;4.314;2024-01-30T06:15:07;6.70;;;5.10;;
17714;SDS011;8977;50.902;4.314;2024-01-30T06:17:35;6.27;;;5.43;;
17714;SDS011;8977;50.902;4.314;2024-01-30T06:20:02;7.60;;;5.77;;
17714;SDS011;8977;50.902;4.314;2024-01-30T06:22:31;6.60;;;4.93;;
17714;SDS011;8977;50.902;4.314;2024-01-30T06:24:58;6.43;;;5.00;;
17714;SDS011;8977;50.902;4.314;2024-01-30T06:27:25;6.97;;;5.50;;
17714;SDS011;8977;50.902;4.314;2024-01-30T06:29:51;6.70;;;5.70;;
17714;SDS011;8977;50.902;4.314;2024-01-30T06:32:18;6.47;;;5.47;;
17714;SDS011;8977;50.902;4.314;2024-01-30T06:34:45;8.23;;;5.90;;
17714;SDS011;8977;50.902;4.314;2024-01-30T06:37:12;7.00;;;5.60;;
17714;SDS011;8977;50.902;4.314;2024-01-30T06:39:40;7.87;;;5.93;;
17714;SDS011;8977;50.902;4.314;2024-01-30T06:42:07;7.20;;;5.70;;
17714;SDS011;8977;50.902;4.314;2024-01-30T06:44:34;7.63;;;5.70;;
17714;SDS011;8977;50.902;4.314;2024-01-30T06:47:01;9.57;;;6.10;;
17714;SDS011;8977;50.902;4.314;2024-01-30T06:49:28;8.03;;;6.07;;
17714;SDS011;8977;50.902;4.314;2024-01-30T06:51:55;10.53;;;6.23;;
17714;SDS011;8977;50.902;4.314;2024-01-30T06:54:22;8.53;;;6.20;;
17714;SDS011;8977;50.902;4.314;2024-01-30T06:56:50;7.03;;;6.10;;
17714;SDS011;8977;50.902;4.314;2024-01-30T06:59:17;9.10;;;5.87;;
17714;SDS011;8977;50.902;4.314;2024-01-30T07:01:44;6.83;;;5.67;;
17714;SDS011;8977;50.902;4.314;2024-01-30T07:04:11;8.37;;;5.97;;
17714;SDS011;8977;50.902;4.314;2024-01-30T07:06:38;7.23;;;5.93;;
17714;SDS011;8977;50.902;4.314;2024-01-30T07:09:04;10.33;;;6.13;;
17714;SDS011;8977;50.902;4.314;2024-01-30T07:11:31;8.03;;;5.90;;
17714;SDS011;8977;50.902;4.314;2024-01-30T07:13:59;8.27;;;5.80;;
17714;SDS011;8977;50.902;4.314;2024-01-30T07:16:28;7.47;;;5.40;;
17714;SDS011;8977;50.902;4.314;2024-01-30T07:18:55;7.23;;;5.90;;
17714;SDS011;8977;50.902;4.314;2024-01-30T07:21:22;8.10;;;6.17;;
17714;SDS011;8977;50.902;4.314;2024-01-30T07:23:53;8.53;;;6.30;;
17714;SDS011;8977;50.902;4.314;2024-01-30T07:26:20;9.40;;;6.27;;
17714;SDS011;8977;50.902;4.314;2024-01-30T07:28:47;9.17;;;6.43;;
17714;SDS011;8977;50.902;4.314;2024-01-30T07:31:16;9.17;;;6.40;;
17714;SDS011;8977;50.902;4.314;2024-01-30T07:33:45;12.97;;;6.73;;
17714;SDS011;8977;50.902;4.314;2024-01-30T07:36:12;10.90;;;7.30;;
17714;SDS011;8977;50.902;4.314;2024-01-30T07:38:39;11.30;;;6.20;;
17714;SDS011;8977;50.902;4.314;2024-01-30T07:41:06;11.47;;;6.43;;
17714;SDS011;8977;50.902;4.314;2024-01-30T07:43:33;12.63;;;7.00;;
17714;SDS011;8977;50.902;4.314;2024-01-30T07:46:01;11.70;;;6.93;;
17714;SDS011;8977;50.902;4.314;2024-01-30T07:48:29;11.03;;;6.37;;
17714;SDS011;8977;50.902;4.314;2024-01-30T07:50:56;9.97;;;6.10;;
17714;SDS011;8977;50.902;4.314;2024-01-30T07:53:23;10.53;;;6.20;;
17714;SDS011;8977;50.902;4.314;2024-01-30T07:55:50;11.90;;;7.07;;
17714;SDS011;8977;50.902;4.314;2024-01-30T07:58:17;12.33;;;7.40;;
17714;SDS011;8977;50.902;4.314;2024-01-30T08:00:44;10.67;;;6.70;;
17714;SDS011;8977;50.902;4.314;2024-01-30T08:03:11;10.47;;;7.03;;
17714;SDS011;8977;50.902;4.314;2024-01-30T08:05:39;13.37;;;7.37;;
17714;SDS011;8977;50.902;4.314;2024-01-30T08:08:06;12.97;;;6.80;;
17714;SDS011;8977;50.902;4.314;2024-01-30T08:10:33;11.80;;;6.43;;
17714;SDS011;8977;50.902;4.314;2024-01-30T08:13:00;10.47;;;7.33;;
17714;SDS011;8977;50.902;4.314;2024-01-30T08:15:27;12.87;;;7.40;;
17714;SDS011;8977;50.902;4.314;2024-01-30T08:17:54;11.73;;;6.97;;
17714;SDS011;8977;50.902;4.314;2024-01-30T08:20:23;11.30;;;7.43;;
17714;SDS011;8977;50.902;4.314;2024-01-30T08:22:51;12.63;;;6.63;;
17714;SDS011;8977;50.902;4.314;2024-01-30T08:25:17;10.97;;;7.20;;
17714;SDS011;8977;50.902;4.314;2024-01-30T08:27:44;11.57;;;7.13;;
17714;SDS011;8977;50.902;4.314;2024-01-30T08:30:12;9.67;;;6.70;;
17714;SDS011;8977;50.902;4.314;2024-01-30T08:32:39;12.00;;;6.83;;
17714;SDS011;8977;50.902;4.314;2024-01-30T08:35:07;7.80;;;6.53;;
17714;SDS011;8977;50.902;4.314;2024-01-30T08:37:34;12.10;;;7.80;;
17714;SDS011;8977;50.902;4.314;2024-01-30T08:40:03;13.03;;;7.43;;
17714;SDS011;8977;50.902;4.314;2024-01-30T08:42:30;12.33;;;8.13;;
17714;SDS011;8977;50.902;4.314;2024-01-30T08:44:58;9.37;;;7.13;;
17714;SDS011;8977;50.902;4.314;2024-01-30T08:47:25;9.80;;;7.43;;
17714;SDS011;8977;50.902;4.314;2024-01-30T08:49:52;10.60;;;7.70;;
17714;SDS011;8977;50.902;4.314;2024-01-30T08:52:19;13.60;;;8.23;;
17714;SDS011;8977;50.902;4.314;2024-01-30T08:54:46;13.27;;;7.90;;
17714;SDS011;8977;50.902;4.314;2024-01-30T08:57:14;12.43;;;7.83;;
17714;SDS011;8977;50.902;4.314;2024-01-30T08:59:41;10.63;;;7.30;;
17714;SDS011;8977;50.902;4.314;2024-01-30T09:02:10;13.50;;;7.83;;
17714;SDS011;8977;50.902;4.314;2024-01-30T09:04:38;9.67;;;6.83;;
17714;SDS011;8977;50.902;4.314;2024-01-30T09:07:05;11.97;;;6.87;;
17714;SDS011;8977;50.902;4.314;2024-01-30T09:09:34;9.97;;;7.00;;
17714;SDS011;8977;50.902;4.314;2024-01-30T09:12:01;13.47;;;6.90;;
17714;SDS011;8977;50.902;4.314;2024-01-30T09:14:33;9.80;;;7.17;;
17714;SDS011;8977;50.902;4.314;2024-01-30T09:17:00;10.07;;;6.33;;
17714;SDS011;8977;50.902;4.314;2024-01-30T09:19:28;10.00;;;6.67;;
17714;SDS011;8977;50.902;4.314;2024-01-30T09:21:55;11.30;;;7.00;;
17714;SDS011;8977;50.902;4.314;2024-01-30T09:24:22;11.87;;;6.80;;
17714;SDS011;8977;50.902;4.314;2024-01-30T09:26:49;9.13;;;6.60;;
17714;SDS011;8977;50.902;4.314;2024-01-30T09:29:16;9.83;;;6.77;;
17714;SDS011;8977;50.902;4.314;2024-01-30T09:31:44;9.63;;;6.70;;
17714;SDS011;8977;50.902;4.314;2024-01-30T09:34:12;14.07;;;7.67;;
17714;SDS011;8977;50.902;4.314;2024-01-30T09:36:39;12.23;;;7.47;;
17714;SDS011;8977;50.902;4.314;2024-01-30T09:39:06;9.20;;;6.90;;
17714;SDS011;8977;50.902;4.314;2024-01-30T09:41:33;10.00;;;7.20;;
17714;SDS011;8977;50.902;4.314;2024-01-30T09:44:08;8.57;;;6.90;;
17714;SDS011;8977;50.902;4.314;2024-01-30T09:46:37;10.53;;;6.83;;
17714;SDS011;8977;50.902;4.314;2024-01-30T09:49:06;9.23;;;7.27;;
17714;SDS011;8977;50.902;4.314;2024-01-30T09:51:35;10.23;;;7.57;;
17714;SDS011;8977;50.902;4.314;2024-01-30T09:54:02;12.60;;;8.20;;
17714;SDS011;8977;50.902;4.314;2024-01-30T09:56:29;11.13;;;8.20;;
17714;SDS011;8977;50.902;4.314;2024-01-30T09:58:56;12.43;;;8.67;;
17714;SDS011;8977;50.902;4.314;2024-01-30T10:01:26;12.37;;;8.03;;
17714;SDS011;8977;50.902;4.314;2024-01-30T10:03:53;11.80;;;8.80;;
17714;SDS011;8977;50.902;4.314;2024-01-30T10:06:22;14.03;;;8.97;;
17714;SDS011;8977;50.902;4.314;2024-01-30T10:08:51;13.33;;;9.30;;
17714;SDS011;8977;50.902;4.314;2024-01-30T10:11:17;14.20;;;8.53;;
17714;SDS011;8977;50.902;4.314;2024-01-30T10:13:44;14.27;;;9.13;;
17714;SDS011;8977;50.902;4.314;2024-01-30T10:16:13;12.23;;;9.00;;
17714;SDS011;8977;50.902;4.314;2024-01-30T10:18:41;12.47;;;8.63;;
17714;SDS011;8977;50.902;4.314;2024-01-30T10:21:08;11.60;;;8.87;;
17714;SDS011;8977;50.902;4.314;2024-01-30T10:23:37;12.77;;;8.67;;
17714;SDS011;8977;50.902;4.314;2024-01-30T10:26:04;14.00;;;9.43;;
17714;SDS011;8977;50.902;4.314;2024-01-30T10:28:33;12.57;;;9.37;;
17714;SDS011;8977;50.902;4.314;2024-01-30T10:31:00;14.17;;;9.03;;
17714;SDS011;8977;50.902;4.314;2024-01-30T10:33:28;12.87;;;9.20;;
17714;SDS011;8977;50.902;4.314;2024-01-30T10:35:56;12.73;;;9.63;;
17714;SDS011;8977;50.902;4.314;2024-01-30T10:38:28;11.27;;;9.00;;
17714;SDS011;8977;50.902;4.314;2024-01-30T10:40:58;13.67;;;8.87;;
17714;SDS011;8977;50.902;4.314;2024-01-30T10:43:29;12.13;;;8.40;;
17714;SDS011;8977;50.902;4.314;2024-01-30T10:45:59;13.23;;;8.87;;
17714;SDS011;8977;50.902;4.314;2024-01-30T10:48:33;11.93;;;8.40;;
17714;SDS011;8977;50.902;4.314;2024-01-30T10:51:08;11.83;;;8.47;;
17714;SDS011;8977;50.902;4.314;2024-01-30T10:53:37;11.53;;;8.20;;
17714;SDS011;8977;50.902;4.314;2024-01-30T10:56:07;9.73;;;7.47;;
17714;SDS011;8977;50.902;4.314;2024-01-30T10:58:36;8.77;;;6.10;;
17714;SDS011;8977;50.902;4.314;2024-01-30T11:01:03;8.17;;;5.13;;
17714;SDS011;8977;50.902;4.314;2024-01-30T11:03:32;7.80;;;4.57;;
17714;SDS011;8977;50.902;4.314;2024-01-30T11:06:02;7.20;;;3.20;;
17714;SDS011;8977;50.902;4.314;2024-01-30T11:08:31;6.00;;;3.17;;
17714;SDS011;8977;50.902;4.314;2024-01-30T11:10:58;3.50;;;2.10;;
17714;SDS011;8977;50.902;4.314;2024-01-30T11:13:30;3.60;;;1.80;;
17714;SDS011;8977;50.902;4.314;2024-01-30T11:16:00;4.93;;;1.77;;
17714;SDS011;8977;50.902;4.314;2024-01-30T11:18:28;3.83;;;1.60;;
17714;SDS011;8977;50.902;4.314;2024-01-30T11:20:56;2.10;;;1.30;;
17714;SDS011;8977;50.902;4.314;2024-01-30T11:23:26;1.73;;;1.00;;
17714;SDS011;8977;50.902;4.314;2024-01-30T11:25:53;2.53;;;1.13;;
17714;SDS011;8977;50.902;4.314;2024-01-30T11:28:21;2.83;;;1.20;;
17714;SDS011;8977;50.902;4.314;2024-01-30T11:30:49;2.93;;;1.20;;
17714;SDS011;8977;50.902;4.314;2024-01-30T11:33:27;3.87;;;1.13;;
17714;SDS011;8977;50.902;4.314;2024-01-30T11:35:56;3.73;;;0.90;;
17714;SDS011;8977;50.902;4.314;2024-01-30T11:38:25;2.40;;;0.80;;
17714;SDS011;8977;50.902;4.314;2024-01-30T11:40:53;1.63;;;1.00;;
17714;SDS011;8977;50.902;4.314;2024-01-30T11:43:22;2.43;;;0.73;;
17714;SDS011;8977;50.902;4.314;2024-01-30T11:45:51;2.17;;;0.90;;
17714;SDS011;8977;50.902;4.314;2024-01-30T11:48:18;2.67;;;0.90;;
17714;SDS011;8977;50.902;4.314;2024-01-30T11:50:45;0.80;;;0.60;;
17714;SDS011;8977;50.902;4.314;2024-01-30T11:53:12;2.17;;;0.70;;
17714;SDS011;8977;50.902;4.314;2024-01-30T11:55:39;1.20;;;0.50;;
17714;SDS011;8977;50.902;4.314;2024-01-30T11:58:06;0.73;;;0.60;;
17714;SDS011;8977;50.902;4.314;2024-01-30T12:00:33;1.93;;;0.70;;
17714;SDS011;8977;50.902;4.314;2024-01-30T12:03:02;1.33;;;0.87;;
17714;SDS011;8977;50.902;4.314;2024-01-30T12:05:31;0.90;;;0.60;;
17714;SDS011;8977;50.902;4.314;2024-01-30T12:07:58;2.77;;;0.90;;
17714;SDS011;8977;50.902;4.314;2024-01-30T12:10:25;2.90;;;0.77;;
17714;SDS011;8977;50.902;4.314;2024-01-30T12:12:52;1.73;;;0.90;;
17714;SDS011;8977;50.902;4.314;2024-01-30T12:15:21;3.43;;;0.70;;
17714;SDS011;8977;50.902;4.314;2024-01-30T12:17:48;3.53;;;1.10;;
17714;SDS011;8977;50.902;4.314;2024-01-30T12:20:18;3.33;;;0.97;;
17714;SDS011;8977;50.902;4.314;2024-01-30T12:22:47;2.87;;;0.97;;
17714;SDS011;8977;50.902;4.314;2024-01-30T12:25:15;2.37;;;0.83;;
17714;SDS011;8977;50.902;4.314;2024-01-30T12:27:43;3.80;;;0.80;;
17714;SDS011;8977;50.902;4.314;2024-01-30T12:30:11;1.77;;;1.10;;
17714;SDS011;8977;50.902;4.314;2024-01-30T12:32:39;4.13;;;1.40;;
17714;SDS011;8977;50.902;4.314;2024-01-30T12:35:07;2.23;;;1.30;;
17714;SDS011;8977;50.902;4.314;2024-01-30T12:37:37;3.17;;;0.90;;
17714;SDS011;8977;50.902;4.314;2024-01-30T12:40:05;3.07;;;1.30;;
17714;SDS011;8977;50.902;4.314;2024-01-30T12:42:33;5.90;;;0.97;;
17714;SDS011;8977;50.902;4.314;2024-01-30T12:45:01;1.90;;;0.70;;
17714;SDS011;8977;50.902;4.314;2024-01-30T12:47:29;4.47;;;1.07;;
17714;SDS011;8977;50.902;4.314;2024-01-30T12:49:56;1.87;;;0.77;;
17714;SDS011;8977;50.902;4.314;2024-01-30T12:52:23;2.37;;;1.00;;
17714;SDS011;8977;50.902;4.314;2024-01-30T12:54:52;2.57;;;0.90;;
17714;SDS011;8977;50.902;4.314;2024-01-30T12:57:19;2.60;;;1.10;;
17714;SDS011;8977;50.902;4.314;2024-01-30T12:59:46;4.60;;;1.20;;
17714;SDS011;8977;50.902;4.314;2024-01-30T13:02:13;3.30;;;1.17;;
17714;SDS011;8977;50.902;4.314;2024-01-30T13:04:42;4.97;;;1.23;;
17714;SDS011;8977;50.902;4.314;2024-01-30T13:07:09;3.20;;;0.90;;
17714;SDS011;8977;50.902;4.314;2024-01-30T13:09:36;1.87;;;1.00;;
17714;SDS011;8977;50.902;4.314;2024-01-30T13:12:05;3.30;;;0.83;;
17714;SDS011;8977;50.902;4.314;2024-01-30T13:14:32;5.57;;;0.97;;
17714;SDS011;8977;50.902;4.314;2024-01-30T13:16:59;2.73;;;1.00;;
17714;SDS011;8977;50.902;4.314;2024-01-30T13:19:26;1.83;;;1.00;;
17714;SDS011;8977;50.902;4.314;2024-01-30T13:21:53;1.63;;;0.80;;
17714;SDS011;8977;50.902;4.314;2024-01-30T13:24:20;2.63;;;0.90;;
17714;SDS011;8977;50.902;4.314;2024-01-30T13:26:47;4.73;;;1.33;;
17714;SDS011;8977;50.902;4.314;2024-01-30T13:29:16;2.93;;;0.90;;
17714;SDS011;8977;50.902;4.314;2024-01-30T13:31:44;2.93;;;0.80;;
17714;SDS011;8977;50.902;4.314;2024-01-30T13:34:12;4.00;;;1.40;;
17714;SDS011;8977;50.902;4.314;2024-01-30T13:36:39;3.80;;;1.37;;
17714;SDS011;8977;50.902;4.314;2024-01-30T13:39:06;4.68;;;1.20;;
17714;SDS011;8977;50.902;4.314;2024-01-30T13:41:35;3.40;;;1.40;;
17714;SDS011;8977;50.902;4.314;2024-01-30T13:44:02;4.17;;;1.50;;
17714;SDS011;8977;50.902;4.314;2024-01-30T13:46:31;3.80;;;1.30;;
17714;SDS011;8977;50.902;4.314;2024-01-30T13:48:58;3.10;;;1.30;;
17714;SDS011;8977;50.902;4.314;2024-01-30T13:51:25;3.17;;;1.00;;
17714;SDS011;8977;50.902;4.314;2024-01-30T13:53:52;3.30;;;1.40;;
17714;SDS011;8977;50.902;4.314;2024-01-30T13:56:19;2.27;;;1.03;;
17714;SDS011;8977;50.902;4.314;2024-01-30T13:58:47;4.87;;;1.27;;
17714;SDS011;8977;50.902;4.314;2024-01-30T14:01:15;3.67;;;1.07;;
17714;SDS011;8977;50.902;4.314;2024-01-30T14:03:43;1.47;;;1.00;;
17714;SDS011;8977;50.902;4.314;2024-01-30T14:06:11;3.30;;;1.33;;
17714;SDS011;8977;50.902;4.314;2024-01-30T14:08:38;4.80;;;1.23;;
17714;SDS011;8977;50.902;4.314;2024-01-30T14:11:05;6.13;;;1.53;;
17714;SDS011;8977;50.902;4.314;2024-01-30T14:13:32;4.23;;;2.07;;
17714;SDS011;8977;50.902;4.314;2024-01-30T14:15:59;4.97;;;2.90;;
17714;SDS011;8977;50.902;4.314;2024-01-30T14:18:26;4.33;;;2.80;;
17714;SDS011;8977;50.902;4.314;2024-01-30T14:20:55;3.27;;;2.20;;
17714;SDS011;8977;50.902;4.314;2024-01-30T14:23:22;4.80;;;1.73;;
17714;SDS011;8977;50.902;4.314;2024-01-30T14:25:48;3.23;;;1.57;;
17714;SDS011;8977;50.902;4.314;2024-01-30T14:28:16;2.87;;;1.47;;
17714;SDS011;8977;50.902;4.314;2024-01-30T14:30:43;2.30;;;1.60;;
17714;SDS011;8977;50.902;4.314;2024-01-30T14:33:10;6.47;;;1.80;;
17714;SDS011;8977;50.902;4.314;2024-01-30T14:35:38;3.17;;;1.53;;
17714;SDS011;8977;50.902;4.314;2024-01-30T14:38:06;5.30;;;1.43;;
17714;SDS011;8977;50.902;4.314;2024-01-30T14:40:34;3.73;;;1.20;;
17714;SDS011;8977;50.902;4.314;2024-01-30T14:43:01;5.93;;;1.50;;
17714;SDS011;8977;50.902;4.314;2024-01-30T14:45:28;2.50;;;1.37;;
17714;SDS011;8977;50.902;4.314;2024-01-30T14:47:57;4.07;;;1.10;;
17714;SDS011;8977;50.902;4.314;2024-01-30T14:50:24;2.47;;;1.20;;
17714;SDS011;8977;50.902;4.314;2024-01-30T14:52:53;3.57;;;1.10;;
17714;SDS011;8977;50.902;4.314;2024-01-30T14:55:21;4.80;;;1.80;;
17714;SDS011;8977;50.902;4.314;2024-01-30T14:57:49;1.67;;;1.17;;
17714;SDS011;8977;50.902;4.314;2024-01-30T15:00:16;3.97;;;1.23;;